createdAt,value
2019-02-25T00:02:50.736Z,14.03
2019-02-25T00:07:46.736Z,12.80
2019-02-25T00:12:42.711Z,12.40
2019-02-25T00:17:39.030Z,13.03
2019-02-25T00:22:34.938Z,12.10
2019-02-25T00:27:30.857Z,12.70
2019-02-25T00:32:26.754Z,12.57
2019-02-25T00:37:22.655Z,12.50
2019-02-25T00:42:18.555Z,10.80
2019-02-25T00:47:14.482Z,10.83
2019-02-25T00:52:10.374Z,13.40
2019-02-25T00:57:06.270Z,11.73
2019-02-25T01:02:02.172Z,12.20
2019-02-25T01:06:58.166Z,12.10
2019-02-25T01:11:54.067Z,11.73
2019-02-25T01:16:50.010Z,12.03
2019-02-25T01:21:45.904Z,11.13
2019-02-25T01:26:41.801Z,11.83
2019-02-25T01:31:37.711Z,11.20
2019-02-25T01:36:33.607Z,9.83
2019-02-25T01:41:29.604Z,11.37
2019-02-25T01:46:25.497Z,10.07
2019-02-25T01:51:22.238Z,10.50
2019-02-25T01:56:18.281Z,10.00
2019-02-25T02:01:14.183Z,9.93
2019-02-25T02:06:10.087Z,9.40
2019-02-25T02:11:05.996Z,9.80
2019-02-25T02:16:01.994Z,9.73
2019-02-25T02:20:58.332Z,10.10
2019-02-25T02:25:54.221Z,9.63
2019-02-25T02:30:50.163Z,9.57
2019-02-25T02:35:46.074Z,10.80
2019-02-25T02:40:41.963Z,11.00
2019-02-25T02:45:48.327Z,8.87
2019-02-25T02:50:44.209Z,9.10
2019-02-25T02:55:40.216Z,8.57
2019-02-25T03:00:36.218Z,8.83
2019-02-25T03:05:32.101Z,9.90
2019-02-25T03:10:27.989Z,9.67
2019-02-25T03:15:29.325Z,8.87
2019-02-25T03:20:25.376Z,10.20
2019-02-25T03:25:21.377Z,9.53
2019-02-25T03:30:19.007Z,9.60
2019-02-25T03:35:15.134Z,9.50
2019-02-25T03:40:13.065Z,9.13
2019-02-25T03:45:16.782Z,9.67
2019-02-25T03:50:13.511Z,10.00
2019-02-25T03:55:12.521Z,10.10
2019-02-25T04:00:14.383Z,10.53
2019-02-25T04:05:10.299Z,9.00
2019-02-25T04:10:08.708Z,10.63
2019-02-25T04:15:19.018Z,9.50
2019-02-25T04:20:15.802Z,8.40
2019-02-25T04:25:11.889Z,10.50
2019-02-25T04:30:10.834Z,9.07
2019-02-25T04:35:08.411Z,7.40
2019-02-25T04:40:09.379Z,7.40
2019-02-25T04:45:11.115Z,6.93
2019-02-25T04:50:08.719Z,8.57
2019-02-25T04:55:06.617Z,7.60
2019-02-25T05:00:05.935Z,8.93
2019-02-25T05:05:02.044Z,8.17
2019-02-25T05:09:57.991Z,8.53
2019-02-25T05:20:12.289Z,8.77
2019-02-25T05:25:09.911Z,8.10
2019-02-25T05:30:13.305Z,7.60
2019-02-25T05:35:10.530Z,8.50
2019-02-25T05:40:19.319Z,8.53
2019-02-25T05:45:16.573Z,9.23
2019-02-25T05:50:14.183Z,9.37
2019-02-25T05:55:14.219Z,9.80
2019-02-25T06:00:16.742Z,10.63
2019-02-25T06:05:12.747Z,10.57
2019-02-25T06:10:10.233Z,10.00
2019-02-25T06:15:13.747Z,9.33
2019-02-25T06:20:14.735Z,10.00
2019-02-25T06:25:14.312Z,9.63
2019-02-25T06:30:20.241Z,10.03
2019-02-25T06:35:16.136Z,11.50
2019-02-25T06:40:17.432Z,10.97
2019-02-25T06:45:28.590Z,10.23
2019-02-25T06:50:24.462Z,11.83
2019-02-25T06:55:20.383Z,10.27
2019-02-25T07:00:20.598Z,11.10
2019-02-25T07:10:39.732Z,10.33
2019-02-25T07:15:39.761Z,10.67
2019-02-25T07:20:43.540Z,10.87
2019-02-25T07:25:56.675Z,10.90
2019-02-25T07:30:57.294Z,12.17
2019-02-25T07:35:55.093Z,12.37
2019-02-25T07:41:09.661Z,15.00
2019-02-25T07:46:19.540Z,13.67
2019-02-25T07:51:26.649Z,13.80
2019-02-25T07:56:41.265Z,13.30
2019-02-25T08:01:39.074Z,11.50
2019-02-25T08:06:36.867Z,9.87
2019-02-25T08:11:51.236Z,9.73
2019-02-25T08:16:49.056Z,9.73
2019-02-25T08:21:50.044Z,7.83
2019-02-25T08:26:50.643Z,7.00
2019-02-25T08:31:54.289Z,5.20
2019-02-25T08:37:18.804Z,6.00
2019-02-25T08:42:24.277Z,6.07
2019-02-25T08:47:24.835Z,5.90
2019-02-25T08:52:20.838Z,5.47
2019-02-25T08:57:16.837Z,5.03
2019-02-25T09:02:12.724Z,5.43
2019-02-25T09:07:08.632Z,5.10
2019-02-25T09:12:04.549Z,4.70
2019-02-25T09:17:00.441Z,5.00
2019-02-25T09:21:56.348Z,4.37
2019-02-25T09:26:52.346Z,5.40
2019-02-25T09:31:48.252Z,5.03
2019-02-25T09:36:44.172Z,4.77
2019-02-25T09:41:40.063Z,5.30
2019-02-25T09:46:35.944Z,4.80
2019-02-25T09:51:31.835Z,4.33
2019-02-25T09:56:27.718Z,5.13
2019-02-25T10:01:23.624Z,4.50
2019-02-25T10:06:19.516Z,4.30
2019-02-25T10:11:15.424Z,3.53
2019-02-25T10:16:11.346Z,4.40
2019-02-25T10:21:07.262Z,5.43
2019-02-25T10:26:03.273Z,4.20
2019-02-25T10:30:59.280Z,4.10
2019-02-25T10:35:55.240Z,6.00
2019-02-25T10:40:52.149Z,5.30
2019-02-25T10:45:49.638Z,4.70
2019-02-25T10:50:45.588Z,5.03
2019-02-25T10:56:05.182Z,5.33
2019-02-25T11:01:01.125Z,4.60
2019-02-25T11:05:58.675Z,5.23
2019-02-25T11:10:56.860Z,5.83
2019-02-25T11:15:53.683Z,4.90
2019-02-25T11:20:49.590Z,5.60
2019-02-25T11:25:45.587Z,5.57
2019-02-25T11:30:43.142Z,4.97
2019-02-25T11:35:41.103Z,5.63
2019-02-25T11:40:38.345Z,5.60
2019-02-25T11:45:36.348Z,6.07
2019-02-25T11:50:32.383Z,5.60
2019-02-25T11:55:28.282Z,5.70
2019-02-25T12:00:24.893Z,5.30
2019-02-25T12:05:20.796Z,5.67
2019-02-25T12:10:17.243Z,5.77
2019-02-25T12:15:16.812Z,5.90
2019-02-25T12:20:13.029Z,6.17
2019-02-25T12:25:20.068Z,5.53
2019-02-25T12:30:40.563Z,6.23
2019-02-25T12:35:36.459Z,7.57
2019-02-25T12:40:32.365Z,5.50
2019-02-25T12:45:29.077Z,6.57
2019-02-25T12:50:24.948Z,5.20
2019-02-25T12:55:20.841Z,5.33
2019-02-25T13:00:20.740Z,6.00
2019-02-25T13:05:21.870Z,7.17
2019-02-25T13:10:18.071Z,7.20
2019-02-25T13:15:18.821Z,5.50
2019-02-25T13:20:14.998Z,6.00
2019-02-25T13:25:20.528Z,5.33
2019-02-25T13:30:16.741Z,4.93
2019-02-25T13:35:13.744Z,5.03
2019-02-25T13:40:14.305Z,6.20
2019-02-25T13:45:23.618Z,5.20
2019-02-25T13:50:19.568Z,7.50
2019-02-25T13:55:16.973Z,7.00
2019-02-25T14:00:16.069Z,6.40
2019-02-25T14:05:12.684Z,6.27
2019-02-25T14:10:11.247Z,6.77
2019-02-25T14:15:13.898Z,6.50
2019-02-25T14:20:12.225Z,6.90
2019-02-25T14:25:12.424Z,6.40
2019-02-25T14:30:11.877Z,7.10
2019-02-25T14:35:08.034Z,6.60
2019-02-25T14:40:32.008Z,7.07
2019-02-25T14:45:29.013Z,7.60
2019-02-25T14:50:25.242Z,6.80
2019-02-25T14:55:21.478Z,6.93
2019-02-25T15:00:28.350Z,7.70
2019-02-25T15:05:23.162Z,6.80
2019-02-25T15:10:19.610Z,6.60
2019-02-25T15:15:20.914Z,7.90
2019-02-25T15:20:18.629Z,7.60
2019-02-25T15:25:16.894Z,6.73
2019-02-25T15:30:16.691Z,7.60
2019-02-25T15:35:14.074Z,7.13
2019-02-25T15:40:14.578Z,8.33
2019-02-25T15:45:16.535Z,9.07
2019-02-25T15:50:14.823Z,9.00
2019-02-25T15:55:14.999Z,8.60
2019-02-25T16:00:19.074Z,8.40
2019-02-25T16:05:16.859Z,9.17
2019-02-25T16:10:16.321Z,9.10
2019-02-25T16:15:15.250Z,8.90
2019-02-25T16:20:34.179Z,9.90
2019-02-25T16:25:31.746Z,9.97
2019-02-25T16:30:30.609Z,9.90
2019-02-25T16:35:25.964Z,9.40
2019-02-25T16:40:26.451Z,9.63
2019-02-25T16:45:35.461Z,8.93
2019-02-25T16:50:31.180Z,8.23
2019-02-25T16:55:27.959Z,9.10
2019-02-25T17:00:29.618Z,10.03
2019-02-25T17:05:25.722Z,8.70
2019-02-25T17:10:26.617Z,9.13
2019-02-25T17:15:26.884Z,9.57
2019-02-25T17:20:27.838Z,10.30
2019-02-25T17:25:26.915Z,10.60
2019-02-25T17:30:24.080Z,9.70
2019-02-25T17:35:25.384Z,9.17
2019-02-25T17:40:20.161Z,9.80
2019-02-25T17:45:25.114Z,9.30
2019-02-25T17:50:21.629Z,9.93
2019-02-25T17:55:21.785Z,11.03
2019-02-25T18:00:23.902Z,9.10
2019-02-25T18:05:21.120Z,9.83
2019-02-25T18:10:17.458Z,10.30
2019-02-25T18:15:19.638Z,11.43
2019-02-25T18:20:16.070Z,9.80
2019-02-25T18:25:12.885Z,9.47
2019-02-25T18:30:11.571Z,10.27
2019-02-25T18:35:08.165Z,49.67
2019-02-25T18:40:09.401Z,11.13
2019-02-25T18:45:13.736Z,9.30
2019-02-25T18:50:19.152Z,10.53
2019-02-25T18:55:17.933Z,10.17
2019-02-25T19:00:28.396Z,10.27
2019-02-25T19:05:25.409Z,10.33
2019-02-25T19:10:24.671Z,10.10
2019-02-25T19:15:21.391Z,11.20
2019-02-25T19:20:17.655Z,13.97
2019-02-25T19:25:18.185Z,15.83
2019-02-25T19:30:19.745Z,15.40
2019-02-25T19:35:16.547Z,15.40
2019-02-25T19:40:36.554Z,15.00
2019-02-25T19:45:36.387Z,14.83
2019-02-25T19:50:34.682Z,14.13
2019-02-25T19:55:30.713Z,12.20
2019-02-25T20:00:29.742Z,14.10
2019-02-25T20:05:26.801Z,13.00
2019-02-25T20:10:22.968Z,14.03
2019-02-25T20:15:25.943Z,12.87
2019-02-25T20:20:22.101Z,12.67
2019-02-25T20:25:19.388Z,11.90
2019-02-25T20:30:17.001Z,12.50
2019-02-25T20:35:19.870Z,13.90
2019-02-25T20:40:19.098Z,15.07
2019-02-25T20:45:23.654Z,14.33
2019-02-25T20:50:21.465Z,15.47
2019-02-25T20:55:17.477Z,14.60
2019-02-25T21:00:17.728Z,13.43
2019-02-25T21:05:16.804Z,14.20
2019-02-25T21:10:14.288Z,14.70
2019-02-25T21:15:18.417Z,16.77
2019-02-25T21:20:15.136Z,13.97
2019-02-25T21:25:13.552Z,15.17
2019-02-25T21:30:19.122Z,16.60
2019-02-25T21:35:16.238Z,16.73
2019-02-25T21:40:14.183Z,16.23
2019-02-25T21:45:16.042Z,14.83
2019-02-25T21:50:16.174Z,17.73
2019-02-25T21:55:13.630Z,15.47
2019-02-25T22:00:11.714Z,15.50
2019-02-25T22:05:11.660Z,14.97
2019-02-25T22:10:11.806Z,15.40
2019-02-25T22:15:15.325Z,16.23
2019-02-25T22:20:14.365Z,17.70
2019-02-25T22:25:21.868Z,16.53
2019-02-25T22:30:18.186Z,15.73
2019-02-25T22:35:15.040Z,14.53
2019-02-25T22:40:15.073Z,16.53
2019-02-25T22:45:18.800Z,15.23
2019-02-25T22:50:15.374Z,17.63
2019-02-25T22:55:14.858Z,16.40
2019-02-25T23:00:42.369Z,18.53
2019-02-25T23:05:40.931Z,18.10
2019-02-25T23:10:38.212Z,17.70
2019-02-25T23:15:35.368Z,18.20
2019-02-25T23:20:33.563Z,16.40
2019-02-25T23:25:29.221Z,17.60
2019-02-25T23:30:25.148Z,16.23
2019-02-25T23:35:22.888Z,16.00
2019-02-25T23:40:18.855Z,14.77
2019-02-25T23:45:21.267Z,15.77
2019-02-25T23:50:16.831Z,16.10
2019-02-25T23:55:16.514Z,15.93
